sensor_id;sensor_type;location;lat;lon;timestamp;temperature;humidity
65836;SHT30;52595;51.608;7.216;2022-11-15T00:00:46;9.20;86.63
65836;SHT30;52595;51.608;7.216;2022-11-15T00:03:14;9.26;86.59
65836;SHT30;52595;51.608;7.216;2022-11-15T00:05:40;9.27;86.52
65836;SHT30;52595;51.608;7.216;2022-11-15T00:08:05;9.33;86.68
65836;SHT30;52595;51.608;7.216;2022-11-15T00:10:30;9.36;86.65
65836;SHT30;52595;51.608;7.216;2022-11-15T00:12:56;9.36;86.71
65836;SHT30;52595;51.608;7.216;2022-11-15T00:15:21;9.40;86.85
65836;SHT30;52595;51.608;7.216;2022-11-15T00:17:49;9.42;86.90
65836;SHT30;52595;51.608;7.216;2022-11-15T00:20:18;9.44;87.10
65836;SHT30;52595;51.608;7.216;2022-11-15T00:22:44;9.46;87.05
65836;SHT30;52595;51.608;7.216;2022-11-15T00:25:09;9.47;87.13
65836;SHT30;52595;51.608;7.216;2022-11-15T00:27:34;9.53;87.12
65836;SHT30;52595;51.608;7.216;2022-11-15T00:30:00;9.54;87.25
65836;SHT30;52595;51.608;7.216;2022-11-15T00:32:26;9.56;87.40
65836;SHT30;52595;51.608;7.216;2022-11-15T00:34:51;9.56;87.64
65836;SHT30;52595;51.608;7.216;2022-11-15T00:37:16;9.61;87.94
65836;SHT30;52595;51.608;7.216;2022-11-15T00:39:42;9.57;88.02
65836;SHT30;52595;51.608;7.216;2022-11-15T00:42:07;9.58;88.38
65836;SHT30;52595;51.608;7.216;2022-11-15T00:44:33;9.63;88.36
65836;SHT30;52595;51.608;7.216;2022-11-15T00:46:58;9.60;88.51
65836;SHT30;52595;51.608;7.216;2022-11-15T00:49:23;9.63;88.45
65836;SHT30;52595;51.608;7.216;2022-11-15T00:51:49;9.61;88.46
65836;SHT30;52595;51.608;7.216;2022-11-15T00:54:14;9.61;88.52
65836;SHT30;52595;51.608;7.216;2022-11-15T00:56:39;9.69;88.77
65836;SHT30;52595;51.608;7.216;2022-11-15T00:59:05;9.71;88.85
65836;SHT30;52595;51.608;7.216;2022-11-15T01:01:30;9.70;88.96
65836;SHT30;52595;51.608;7.216;2022-11-15T01:03:55;9.69;89.00
65836;SHT30;52595;51.608;7.216;2022-11-15T01:06:21;9.74;89.23
65836;SHT30;52595;51.608;7.216;2022-11-15T01:08:46;9.77;89.47
65836;SHT30;52595;51.608;7.216;2022-11-15T01:11:12;9.78;89.60
65836;SHT30;52595;51.608;7.216;2022-11-15T01:13:38;9.84;89.72
65836;SHT30;52595;51.608;7.216;2022-11-15T01:16:12;9.97;89.94
65836;SHT30;52595;51.608;7.216;2022-11-15T01:18:39;10.11;89.72
65836;SHT30;52595;51.608;7.216;2022-11-15T01:21:10;10.18;89.57
65836;SHT30;52595;51.608;7.216;2022-11-15T01:23:36;10.21;89.51
65836;SHT30;52595;51.608;7.216;2022-11-15T01:26:03;10.21;89.64
65836;SHT30;52595;51.608;7.216;2022-11-15T01:28:33;10.25;89.69
65836;SHT30;52595;51.608;7.216;2022-11-15T01:31:02;10.28;89.81
65836;SHT30;52595;51.608;7.216;2022-11-15T01:33:28;10.31;89.69
65836;SHT30;52595;51.608;7.216;2022-11-15T01:35:54;10.29;89.90
65836;SHT30;52595;51.608;7.216;2022-11-15T01:38:20;10.32;89.93
65836;SHT30;52595;51.608;7.216;2022-11-15T01:40:45;10.48;89.90
65836;SHT30;52595;51.608;7.216;2022-11-15T01:43:29;10.46;89.69
65836;SHT30;52595;51.608;7.216;2022-11-15T01:48:46;10.71;89.86
65836;SHT30;52595;51.608;7.216;2022-11-15T01:51:13;10.76;89.63
65836;SHT30;52595;51.608;7.216;2022-11-15T01:53:43;10.77;89.42
65836;SHT30;52595;51.608;7.216;2022-11-15T01:56:16;10.83;89.72
65836;SHT30;52595;51.608;7.216;2022-11-15T01:58:44;10.86;89.91
65836;SHT30;52595;51.608;7.216;2022-11-15T02:01:12;10.90;89.92
65836;SHT30;52595;51.608;7.216;2022-11-15T02:03:58;10.96;90.16
65836;SHT30;52595;51.608;7.216;2022-11-15T02:06:24;11.03;89.83
65836;SHT30;52595;51.608;7.216;2022-11-15T02:08:50;11.10;89.72
65836;SHT30;52595;51.608;7.216;2022-11-15T02:11:16;11.10;89.60
65836;SHT30;52595;51.608;7.216;2022-11-15T02:13:41;11.22;89.92
65836;SHT30;52595;51.608;7.216;2022-11-15T02:18:42;11.44;89.55
65836;SHT30;52595;51.608;7.216;2022-11-15T02:21:32;11.54;89.47
65836;SHT30;52595;51.608;7.216;2022-11-15T02:26:41;11.74;89.45
65836;SHT30;52595;51.608;7.216;2022-11-15T02:29:11;11.82;89.15
65836;SHT30;52595;51.608;7.216;2022-11-15T02:37:42;11.97;88.85
65836;SHT30;52595;51.608;7.216;2022-11-15T02:40:13;11.99;88.60
65836;SHT30;52595;51.608;7.216;2022-11-15T02:42:47;12.08;88.57
65836;SHT30;52595;51.608;7.216;2022-11-15T02:45:39;12.05;88.56
65836;SHT30;52595;51.608;7.216;2022-11-15T02:48:06;12.08;88.52
65836;SHT30;52595;51.608;7.216;2022-11-15T02:50:32;12.12;88.36
65836;SHT30;52595;51.608;7.216;2022-11-15T02:52:58;12.17;88.12
65836;SHT30;52595;51.608;7.216;2022-11-15T02:55:33;12.14;88.18
65836;SHT30;52595;51.608;7.216;2022-11-15T02:58:03;12.14;88.21
65836;SHT30;52595;51.608;7.216;2022-11-15T03:00:35;12.24;88.03
65836;SHT30;52595;51.608;7.216;2022-11-15T03:03:24;12.19;87.99
65836;SHT30;52595;51.608;7.216;2022-11-15T03:08:43;12.24;87.93
65836;SHT30;52595;51.608;7.216;2022-11-15T03:11:15;12.26;87.96
65836;SHT30;52595;51.608;7.216;2022-11-15T03:14:34;12.21;88.05
65836;SHT30;52595;51.608;7.216;2022-11-15T03:16:38;12.18;87.98
65836;SHT30;52595;51.608;7.216;2022-11-15T03:19:23;12.25;88.14
65836;SHT30;52595;51.608;7.216;2022-11-15T03:21:51;12.22;88.19
65836;SHT30;52595;51.608;7.216;2022-11-15T03:24:19;12.24;88.08
65836;SHT30;52595;51.608;7.216;2022-11-15T03:26:45;12.19;88.02
65836;SHT30;52595;51.608;7.216;2022-11-15T03:29:16;12.14;88.42
65836;SHT30;52595;51.608;7.216;2022-11-15T03:31:55;12.19;88.34
65836;SHT30;52595;51.608;7.216;2022-11-15T03:36:56;12.11;88.57
65836;SHT30;52595;51.608;7.216;2022-11-15T03:39:22;12.06;88.66
65836;SHT30;52595;51.608;7.216;2022-11-15T03:49:35;11.98;89.31
65836;SHT30;52595;51.608;7.216;2022-11-15T03:52:03;11.99;89.15
65836;SHT30;52595;51.608;7.216;2022-11-15T03:54:29;12.02;89.18
65836;SHT30;52595;51.608;7.216;2022-11-15T03:56:54;11.99;89.25
65836;SHT30;52595;51.608;7.216;2022-11-15T03:59:19;11.98;89.28
65836;SHT30;52595;51.608;7.216;2022-11-15T04:01:45;11.98;89.41
65836;SHT30;52595;51.608;7.216;2022-11-15T04:04:10;11.97;89.48
65836;SHT30;52595;51.608;7.216;2022-11-15T04:06:36;12.14;89.05
65836;SHT30;52595;51.608;7.216;2022-11-15T04:09:01;12.15;88.92
65836;SHT30;52595;51.608;7.216;2022-11-15T04:11:26;12.14;89.01
65836;SHT30;52595;51.608;7.216;2022-11-15T04:13:52;12.17;89.17
65836;SHT30;52595;51.608;7.216;2022-11-15T04:16:17;12.09;89.23
65836;SHT30;52595;51.608;7.216;2022-11-15T04:18:42;12.12;89.39
65836;SHT30;52595;51.608;7.216;2022-11-15T04:21:08;12.01;89.45
65836;SHT30;52595;51.608;7.216;2022-11-15T04:23:52;12.01;89.68
65836;SHT30;52595;51.608;7.216;2022-11-15T04:26:36;12.05;89.83
65836;SHT30;52595;51.608;7.216;2022-11-15T04:29:01;12.04;89.41
65836;SHT30;52595;51.608;7.216;2022-11-15T04:31:45;12.11;89.55
65836;SHT30;52595;51.608;7.216;2022-11-15T04:34:11;12.17;89.48
65836;SHT30;52595;51.608;7.216;2022-11-15T04:36:36;12.14;89.50
65836;SHT30;52595;51.608;7.216;2022-11-15T04:39:20;12.12;89.52
65836;SHT30;52595;51.608;7.216;2022-11-15T04:41:45;12.12;89.62
65836;SHT30;52595;51.608;7.216;2022-11-15T04:44:11;12.15;89.68
65836;SHT30;52595;51.608;7.216;2022-11-15T04:46:36;12.19;89.55
65836;SHT30;52595;51.608;7.216;2022-11-15T04:49:02;12.24;89.33
65836;SHT30;52595;51.608;7.216;2022-11-15T04:51:27;12.29;89.29
65836;SHT30;52595;51.608;7.216;2022-11-15T04:53:52;12.30;89.16
65836;SHT30;52595;51.608;7.216;2022-11-15T04:56:18;12.32;89.07
65836;SHT30;52595;51.608;7.216;2022-11-15T04:58:43;12.36;89.12
65836;SHT30;52595;51.608;7.216;2022-11-15T05:01:13;12.32;89.23
65836;SHT30;52595;51.608;7.216;2022-11-15T05:03:40;12.30;89.22
65836;SHT30;52595;51.608;7.216;2022-11-15T05:06:24;12.36;89.03
65836;SHT30;52595;51.608;7.216;2022-11-15T05:08:49;12.48;88.74
65836;SHT30;52595;51.608;7.216;2022-11-15T05:11:14;12.39;88.76
65836;SHT30;52595;51.608;7.216;2022-11-15T05:13:40;12.40;88.86
65836;SHT30;52595;51.608;7.216;2022-11-15T05:16:05;12.39;88.78
65836;SHT30;52595;51.608;7.216;2022-11-15T05:18:31;12.46;88.71
65836;SHT30;52595;51.608;7.216;2022-11-15T05:21:03;12.46;88.74
65836;SHT30;52595;51.608;7.216;2022-11-15T05:23:28;12.50;88.65
65836;SHT30;52595;51.608;7.216;2022-11-15T05:25:58;12.49;88.66
65836;SHT30;52595;51.608;7.216;2022-11-15T05:28:24;12.46;88.80
65836;SHT30;52595;51.608;7.216;2022-11-15T05:30:49;12.52;88.54
65836;SHT30;52595;51.608;7.216;2022-11-15T05:33:14;12.53;88.49
65836;SHT30;52595;51.608;7.216;2022-11-15T05:35:42;12.56;88.33
65836;SHT30;52595;51.608;7.216;2022-11-15T05:38:11;12.59;88.34
65836;SHT30;52595;51.608;7.216;2022-11-15T05:40:36;12.60;88.21
65836;SHT30;52595;51.608;7.216;2022-11-15T05:43:02;12.57;88.21
65836;SHT30;52595;51.608;7.216;2022-11-15T05:45:29;12.62;88.16
65836;SHT30;52595;51.608;7.216;2022-11-15T05:47:57;12.57;88.38
65836;SHT30;52595;51.608;7.216;2022-11-15T05:50:24;12.55;88.41
65836;SHT30;52595;51.608;7.216;2022-11-15T05:52:50;12.59;88.42
65836;SHT30;52595;51.608;7.216;2022-11-15T05:55:16;12.57;88.36
65836;SHT30;52595;51.608;7.216;2022-11-15T05:57:42;12.60;88.61
65836;SHT30;52595;51.608;7.216;2022-11-15T06:00:08;12.50;89.25
65836;SHT30;52595;51.608;7.216;2022-11-15T06:02:34;12.40;90.40
65836;SHT30;52595;51.608;7.216;2022-11-15T06:05:00;12.19;92.32
65836;SHT30;52595;51.608;7.216;2022-11-15T06:07:25;11.97;94.10
65836;SHT30;52595;51.608;7.216;2022-11-15T06:09:50;11.85;95.27
65836;SHT30;52595;51.608;7.216;2022-11-15T06:12:16;11.81;95.47
65836;SHT30;52595;51.608;7.216;2022-11-15T06:14:41;11.73;96.27
65836;SHT30;52595;51.608;7.216;2022-11-15T06:17:07;11.71;96.12
65836;SHT30;52595;51.608;7.216;2022-11-15T06:19:32;11.63;96.97
65836;SHT30;52595;51.608;7.216;2022-11-15T06:22:00;11.68;96.63
65836;SHT30;52595;51.608;7.216;2022-11-15T06:24:26;11.70;96.84
65836;SHT30;52595;51.608;7.216;2022-11-15T06:26:51;11.68;96.93
65836;SHT30;52595;51.608;7.216;2022-11-15T06:29:17;11.64;97.36
65836;SHT30;52595;51.608;7.216;2022-11-15T06:31:42;11.65;97.03
65836;SHT30;52595;51.608;7.216;2022-11-15T06:34:08;11.70;96.32
65836;SHT30;52595;51.608;7.216;2022-11-15T06:36:37;11.65;96.94
65836;SHT30;52595;51.608;7.216;2022-11-15T06:39:03;11.67;96.91
65836;SHT30;52595;51.608;7.216;2022-11-15T06:41:29;11.70;96.82
65836;SHT30;52595;51.608;7.216;2022-11-15T06:43:54;11.70;96.90
65836;SHT30;52595;51.608;7.216;2022-11-15T06:46:19;11.64;96.94
65836;SHT30;52595;51.608;7.216;2022-11-15T06:48:45;11.74;96.00
65836;SHT30;52595;51.608;7.216;2022-11-15T06:51:10;11.79;95.49
65836;SHT30;52595;51.608;7.216;2022-11-15T06:53:36;11.81;95.35
65836;SHT30;52595;51.608;7.216;2022-11-15T06:56:06;11.79;95.32
65836;SHT30;52595;51.608;7.216;2022-11-15T06:58:32;11.85;95.22
65836;SHT30;52595;51.608;7.216;2022-11-15T07:01:02;11.91;94.77
65836;SHT30;52595;51.608;7.216;2022-11-15T07:03:28;11.98;94.38
65836;SHT30;52595;51.608;7.216;2022-11-15T07:05:55;11.98;94.12
65836;SHT30;52595;51.608;7.216;2022-11-15T07:08:22;12.02;93.76
65836;SHT30;52595;51.608;7.216;2022-11-15T07:10:48;12.02;93.55
65836;SHT30;52595;51.608;7.216;2022-11-15T07:13:13;12.06;93.37
65836;SHT30;52595;51.608;7.216;2022-11-15T07:15:39;12.15;93.03
65836;SHT30;52595;51.608;7.216;2022-11-15T07:18:04;12.25;92.68
65836;SHT30;52595;51.608;7.216;2022-11-15T07:20:29;12.24;92.40
65836;SHT30;52595;51.608;7.216;2022-11-15T07:23:05;12.29;92.17
65836;SHT30;52595;51.608;7.216;2022-11-15T07:25:31;12.35;91.56
65836;SHT30;52595;51.608;7.216;2022-11-15T07:27:57;12.39;91.15
65836;SHT30;52595;51.608;7.216;2022-11-15T07:30:24;12.42;91.06
65836;SHT30;52595;51.608;7.216;2022-11-15T07:32:57;12.42;90.71
65836;SHT30;52595;51.608;7.216;2022-11-15T07:35:24;12.43;90.56
65836;SHT30;52595;51.608;7.216;2022-11-15T07:37:57;12.46;90.36
65836;SHT30;52595;51.608;7.216;2022-11-15T07:40:22;12.46;89.75
65836;SHT30;52595;51.608;7.216;2022-11-15T07:42:48;12.56;88.90
65836;SHT30;52595;51.608;7.216;2022-11-15T07:45:22;12.57;88.84
65836;SHT30;52595;51.608;7.216;2022-11-15T07:47:49;12.57;88.76
65836;SHT30;52595;51.608;7.216;2022-11-15T07:50:16;12.64;87.93
65836;SHT30;52595;51.608;7.216;2022-11-15T07:52:41;12.70;87.51
65836;SHT30;52595;51.608;7.216;2022-11-15T07:55:08;12.77;86.52
65836;SHT30;52595;51.608;7.216;2022-11-15T07:57:33;12.76;86.64
65836;SHT30;52595;51.608;7.216;2022-11-15T07:59:59;12.76;85.70
65836;SHT30;52595;51.608;7.216;2022-11-15T08:02:24;12.70;86.05
65836;SHT30;52595;51.608;7.216;2022-11-15T08:04:49;12.69;86.05
65836;SHT30;52595;51.608;7.216;2022-11-15T08:07:15;12.62;86.00
65836;SHT30;52595;51.608;7.216;2022-11-15T08:09:40;12.62;86.02
65836;SHT30;52595;51.608;7.216;2022-11-15T08:12:06;12.60;86.32
65836;SHT30;52595;51.608;7.216;2022-11-15T08:14:32;12.57;86.34
65836;SHT30;52595;51.608;7.216;2022-11-15T08:16:57;12.63;85.78
65836;SHT30;52595;51.608;7.216;2022-11-15T08:19:22;12.62;85.96
65836;SHT30;52595;51.608;7.216;2022-11-15T08:21:48;12.60;85.74
65836;SHT30;52595;51.608;7.216;2022-11-15T08:24:14;12.59;85.52
65836;SHT30;52595;51.608;7.216;2022-11-15T08:26:39;12.62;85.39
65836;SHT30;52595;51.608;7.216;2022-11-15T08:29:05;12.60;85.38
65836;SHT30;52595;51.608;7.216;2022-11-15T08:31:30;12.60;85.12
65836;SHT30;52595;51.608;7.216;2022-11-15T08:33:56;12.60;85.28
65836;SHT30;52595;51.608;7.216;2022-11-15T08:36:21;12.60;84.95
65836;SHT30;52595;51.608;7.216;2022-11-15T08:38:46;12.70;84.51
65836;SHT30;52595;51.608;7.216;2022-11-15T08:41:18;12.80;84.16
65836;SHT30;52595;51.608;7.216;2022-11-15T08:43:44;12.83;84.10
65836;SHT30;52595;51.608;7.216;2022-11-15T08:46:12;12.99;83.51
65836;SHT30;52595;51.608;7.216;2022-11-15T08:48:38;13.08;83.13
65836;SHT30;52595;51.608;7.216;2022-11-15T08:51:03;13.18;82.70
65836;SHT30;52595;51.608;7.216;2022-11-15T08:53:29;13.28;82.62
65836;SHT30;52595;51.608;7.216;2022-11-15T08:55:54;13.37;81.72
65836;SHT30;52595;51.608;7.216;2022-11-15T08:58:19;13.47;81.68
65836;SHT30;52595;51.608;7.216;2022-11-15T09:00:45;13.47;81.48
65836;SHT30;52595;51.608;7.216;2022-11-15T09:03:10;13.43;81.34
65836;SHT30;52595;51.608;7.216;2022-11-15T09:05:36;13.35;81.35
65836;SHT30;52595;51.608;7.216;2022-11-15T09:08:03;13.30;80.79
65836;SHT30;52595;51.608;7.216;2022-11-15T09:10:28;13.27;80.62
65836;SHT30;52595;51.608;7.216;2022-11-15T09:12:54;13.34;80.49
65836;SHT30;52595;51.608;7.216;2022-11-15T09:15:19;13.35;80.15
65836;SHT30;52595;51.608;7.216;2022-11-15T09:17:45;13.40;80.09
65836;SHT30;52595;51.608;7.216;2022-11-15T09:20:10;13.44;79.65
65836;SHT30;52595;51.608;7.216;2022-11-15T09:22:36;13.41;79.86
65836;SHT30;52595;51.608;7.216;2022-11-15T09:25:04;13.34;79.79
65836;SHT30;52595;51.608;7.216;2022-11-15T09:27:30;13.33;79.27
65836;SHT30;52595;51.608;7.216;2022-11-15T09:29:55;13.34;79.45
65836;SHT30;52595;51.608;7.216;2022-11-15T09:32:21;13.43;79.05
65836;SHT30;52595;51.608;7.216;2022-11-15T09:34:48;13.35;79.24
65836;SHT30;52595;51.608;7.216;2022-11-15T09:37:14;13.33;79.16
65836;SHT30;52595;51.608;7.216;2022-11-15T09:39:39;13.24;78.71
65836;SHT30;52595;51.608;7.216;2022-11-15T09:47:46;13.34;78.38
65836;SHT30;52595;51.608;7.216;2022-11-15T09:50:20;13.35;77.65
65836;SHT30;52595;51.608;7.216;2022-11-15T09:52:50;13.47;77.59
65836;SHT30;52595;51.608;7.216;2022-11-15T09:55:16;13.44;77.13
65836;SHT30;52595;51.608;7.216;2022-11-15T10:00:32;13.58;76.35
65836;SHT30;52595;51.608;7.216;2022-11-15T10:05:41;13.68;74.83
65836;SHT30;52595;51.608;7.216;2022-11-15T10:11:11;13.74;73.99
65836;SHT30;52595;51.608;7.216;2022-11-15T10:13:44;13.71;73.95
65836;SHT30;52595;51.608;7.216;2022-11-15T10:19:16;13.92;73.23
65836;SHT30;52595;51.608;7.216;2022-11-15T10:24:26;14.04;72.58
65836;SHT30;52595;51.608;7.216;2022-11-15T10:26:54;14.15;72.07
65836;SHT30;52595;51.608;7.216;2022-11-15T10:29:20;14.18;71.98
65836;SHT30;52595;51.608;7.216;2022-11-15T10:31:46;14.08;72.09
65836;SHT30;52595;51.608;7.216;2022-11-15T10:34:15;14.13;70.89
65836;SHT30;52595;51.608;7.216;2022-11-15T10:36:46;14.29;70.29
65836;SHT30;52595;51.608;7.216;2022-11-15T10:39:13;14.56;69.60
65836;SHT30;52595;51.608;7.216;2022-11-15T10:41:41;14.72;68.72
65836;SHT30;52595;51.608;7.216;2022-11-15T10:46:34;14.52;67.95
65836;SHT30;52595;51.608;7.216;2022-11-15T10:51:43;14.95;66.48
65836;SHT30;52595;51.608;7.216;2022-11-15T10:54:11;15.05;66.02
65836;SHT30;52595;51.608;7.216;2022-11-15T10:56:37;15.31;64.63
65836;SHT30;52595;51.608;7.216;2022-11-15T10:59:04;15.31;63.96
65836;SHT30;52595;51.608;7.216;2022-11-15T11:01:29;15.49;63.77
65836;SHT30;52595;51.608;7.216;2022-11-15T11:04:01;15.58;63.28
65836;SHT30;52595;51.608;7.216;2022-11-15T11:06:27;15.75;63.07
65836;SHT30;52595;51.608;7.216;2022-11-15T11:09:04;16.22;61.94
65836;SHT30;52595;51.608;7.216;2022-11-15T11:11:50;16.14;62.15
65836;SHT30;52595;51.608;7.216;2022-11-15T11:14:23;16.26;61.92
65836;SHT30;52595;51.608;7.216;2022-11-15T11:22:27;17.32;58.67
65836;SHT30;52595;51.608;7.216;2022-11-15T11:35:50;17.86;57.07
65836;SHT30;52595;51.608;7.216;2022-11-15T11:38:32;17.69;56.05
65836;SHT30;52595;51.608;7.216;2022-11-15T11:43:51;18.44;54.17
65836;SHT30;52595;51.608;7.216;2022-11-15T11:49:09;17.05;54.23
65836;SHT30;52595;51.608;7.216;2022-11-15T11:51:45;17.48;54.55
65836;SHT30;52595;51.608;7.216;2022-11-15T11:56:44;18.65;52.65
65836;SHT30;52595;51.608;7.216;2022-11-15T12:02:12;18.33;52.53
65836;SHT30;52595;51.608;7.216;2022-11-15T12:04:40;19.48;50.17
65836;SHT30;52595;51.608;7.216;2022-11-15T12:07:27;19.73;49.72
65836;SHT30;52595;51.608;7.216;2022-11-15T12:12:55;18.87;50.43
65836;SHT30;52595;51.608;7.216;2022-11-15T12:15:26;18.74;50.61
65836;SHT30;52595;51.608;7.216;2022-11-15T12:17:55;18.34;49.95
65836;SHT30;52595;51.608;7.216;2022-11-15T12:20:23;18.16;51.01
65836;SHT30;52595;51.608;7.216;2022-11-15T12:23:16;18.37;50.36
65836;SHT30;52595;51.608;7.216;2022-11-15T12:25:53;19.19;48.99
65836;SHT30;52595;51.608;7.216;2022-11-15T12:28:40;18.72;47.54
65836;SHT30;52595;51.608;7.216;2022-11-15T12:33:55;18.98;47.05
65836;SHT30;52595;51.608;7.216;2022-11-15T12:38:55;18.60;47.36
65836;SHT30;52595;51.608;7.216;2022-11-15T12:41:29;19.38;46.32
65836;SHT30;52595;51.608;7.216;2022-11-15T12:43:55;20.11;44.89
65836;SHT30;52595;51.608;7.216;2022-11-15T12:46:58;19.80;44.47
65836;SHT30;52595;51.608;7.216;2022-11-15T12:49:41;19.36;45.57
65836;SHT30;52595;51.608;7.216;2022-11-15T13:17:43;18.13;48.84
65836;SHT30;52595;51.608;7.216;2022-11-15T13:23:15;18.94;47.63
65836;SHT30;52595;51.608;7.216;2022-11-15T13:28:27;19.19;48.03
65836;SHT30;52595;51.608;7.216;2022-11-15T13:30:56;19.40;48.04
65836;SHT30;52595;51.608;7.216;2022-11-15T13:33:31;19.16;48.57
65836;SHT30;52595;51.608;7.216;2022-11-15T13:35:59;19.46;48.27
65836;SHT30;52595;51.608;7.216;2022-11-15T13:38:30;19.02;49.32
65836;SHT30;52595;51.608;7.216;2022-11-15T13:40:57;18.26;50.62
65836;SHT30;52595;51.608;7.216;2022-11-15T13:43:28;17.27;52.98
65836;SHT30;52595;51.608;7.216;2022-11-15T13:46:16;16.65;54.45
65836;SHT30;52595;51.608;7.216;2022-11-15T13:48:42;16.64;55.17
65836;SHT30;52595;51.608;7.216;2022-11-15T13:51:15;16.52;54.99
65836;SHT30;52595;51.608;7.216;2022-11-15T13:53:50;17.04;54.53
65836;SHT30;52595;51.608;7.216;2022-11-15T13:56:18;17.38;53.27
65836;SHT30;52595;51.608;7.216;2022-11-15T13:58:44;17.21;53.64
65836;SHT30;52595;51.608;7.216;2022-11-15T14:01:15;16.83;54.69
65836;SHT30;52595;51.608;7.216;2022-11-15T14:03:54;16.52;55.78
65836;SHT30;52595;51.608;7.216;2022-11-15T14:06:23;16.34;56.41
65836;SHT30;52595;51.608;7.216;2022-11-15T14:09:02;15.93;57.91
65836;SHT30;52595;51.608;7.216;2022-11-15T14:11:28;15.79;58.66
65836;SHT30;52595;51.608;7.216;2022-11-15T14:14:14;15.62;59.25
65836;SHT30;52595;51.608;7.216;2022-11-15T14:16:47;15.31;60.43
65836;SHT30;52595;51.608;7.216;2022-11-15T14:19:34;15.27;61.00
65836;SHT30;52595;51.608;7.216;2022-11-15T14:27:32;14.93;62.62
65836;SHT30;52595;51.608;7.216;2022-11-15T14:29:58;14.93;62.73
65836;SHT30;52595;51.608;7.216;2022-11-15T14:32:28;14.85;63.13
65836;SHT30;52595;51.608;7.216;2022-11-15T14:34:59;14.84;63.65
65836;SHT30;52595;51.608;7.216;2022-11-15T14:37:28;14.83;63.64
65836;SHT30;52595;51.608;7.216;2022-11-15T14:39:56;14.70;64.50
65836;SHT30;52595;51.608;7.216;2022-11-15T14:42:22;14.64;64.80
65836;SHT30;52595;51.608;7.216;2022-11-15T14:44:48;14.47;65.50
65836;SHT30;52595;51.608;7.216;2022-11-15T14:47:14;14.43;65.87
65836;SHT30;52595;51.608;7.216;2022-11-15T14:49:39;14.39;66.26
65836;SHT30;52595;51.608;7.216;2022-11-15T14:54:49;14.33;66.58
65836;SHT30;52595;51.608;7.216;2022-11-15T14:57:14;14.28;67.00
65836;SHT30;52595;51.608;7.216;2022-11-15T14:59:40;14.23;67.13
65836;SHT30;52595;51.608;7.216;2022-11-15T15:02:16;14.12;67.51
65836;SHT30;52595;51.608;7.216;2022-11-15T15:04:42;14.13;67.67
65836;SHT30;52595;51.608;7.216;2022-11-15T15:07:07;14.06;68.06
65836;SHT30;52595;51.608;7.216;2022-11-15T15:09:32;14.04;68.13
65836;SHT30;52595;51.608;7.216;2022-11-15T15:11:58;14.02;68.51
65836;SHT30;52595;51.608;7.216;2022-11-15T15:14:23;13.99;68.93
65836;SHT30;52595;51.608;7.216;2022-11-15T15:16:48;13.97;68.76
65836;SHT30;52595;51.608;7.216;2022-11-15T15:19:14;13.88;69.40
65836;SHT30;52595;51.608;7.216;2022-11-15T15:21:39;13.81;69.61
65836;SHT30;52595;51.608;7.216;2022-11-15T15:24:05;13.71;70.05
65836;SHT30;52595;51.608;7.216;2022-11-15T15:26:30;13.69;70.18
65836;SHT30;52595;51.608;7.216;2022-11-15T15:28:58;13.64;70.31
65836;SHT30;52595;51.608;7.216;2022-11-15T15:31:24;13.62;70.71
65836;SHT30;52595;51.608;7.216;2022-11-15T15:33:49;13.55;70.70
65836;SHT30;52595;51.608;7.216;2022-11-15T15:36:17;13.51;70.75
65836;SHT30;52595;51.608;7.216;2022-11-15T15:38:43;13.53;70.90
65836;SHT30;52595;51.608;7.216;2022-11-15T15:41:11;13.48;71.06
65836;SHT30;52595;51.608;7.216;2022-11-15T15:43:36;13.45;70.98
65836;SHT30;52595;51.608;7.216;2022-11-15T15:46:02;13.53;71.03
65836;SHT30;52595;51.608;7.216;2022-11-15T15:48:27;13.48;71.25
65836;SHT30;52595;51.608;7.216;2022-11-15T15:50:52;13.37;71.53
65836;SHT30;52595;51.608;7.216;2022-11-15T15:53:18;13.37;71.65
65836;SHT30;52595;51.608;7.216;2022-11-15T15:55:43;13.34;71.94
65836;SHT30;52595;51.608;7.216;2022-11-15T15:58:09;13.27;72.36
65836;SHT30;52595;51.608;7.216;2022-11-15T16:00:35;13.25;72.37
65836;SHT30;52595;51.608;7.216;2022-11-15T16:03:02;13.24;72.72
65836;SHT30;52595;51.608;7.216;2022-11-15T16:05:27;13.21;72.95
65836;SHT30;52595;51.608;7.216;2022-11-15T16:07:52;13.23;73.00
65836;SHT30;52595;51.608;7.216;2022-11-15T16:12:46;13.40;72.63
65836;SHT30;52595;51.608;7.216;2022-11-15T16:15:11;13.35;72.86
65836;SHT30;52595;51.608;7.216;2022-11-15T16:17:39;13.34;72.52
65836;SHT30;52595;51.608;7.216;2022-11-15T16:20:06;13.30;72.65
65836;SHT30;52595;51.608;7.216;2022-11-15T16:22:31;13.35;72.50
65836;SHT30;52595;51.608;7.216;2022-11-15T16:24:57;13.37;73.00
65836;SHT30;52595;51.608;7.216;2022-11-15T16:27:22;13.33;72.58
65836;SHT30;52595;51.608;7.216;2022-11-15T16:29:48;13.35;72.67
65836;SHT30;52595;51.608;7.216;2022-11-15T16:32:14;13.27;72.84
65836;SHT30;52595;51.608;7.216;2022-11-15T16:34:40;13.21;73.18
65836;SHT30;52595;51.608;7.216;2022-11-15T16:37:20;13.13;73.34
65836;SHT30;52595;51.608;7.216;2022-11-15T16:39:46;13.06;73.72
65836;SHT30;52595;51.608;7.216;2022-11-15T16:42:12;13.07;73.66
65836;SHT30;52595;51.608;7.216;2022-11-15T16:44:37;13.06;73.84
65836;SHT30;52595;51.608;7.216;2022-11-15T16:47:02;13.03;74.07
65836;SHT30;52595;51.608;7.216;2022-11-15T16:49:28;12.99;74.04
65836;SHT30;52595;51.608;7.216;2022-11-15T16:51:53;12.96;74.32
65836;SHT30;52595;51.608;7.216;2022-11-15T16:54:18;12.97;74.35
65836;SHT30;52595;51.608;7.216;2022-11-15T16:56:44;12.96;74.37
65836;SHT30;52595;51.608;7.216;2022-11-15T16:59:15;12.94;74.58
65836;SHT30;52595;51.608;7.216;2022-11-15T17:01:41;12.92;74.74
65836;SHT30;52595;51.608;7.216;2022-11-15T17:04:18;12.92;74.95
65836;SHT30;52595;51.608;7.216;2022-11-15T17:06:46;12.90;74.99
65836;SHT30;52595;51.608;7.216;2022-11-15T17:09:17;12.89;75.04
65836;SHT30;52595;51.608;7.216;2022-11-15T17:11:43;13.02;74.82
65836;SHT30;52595;51.608;7.216;2022-11-15T17:14:09;13.04;74.83
65836;SHT30;52595;51.608;7.216;2022-11-15T17:16:35;13.03;74.87
65836;SHT30;52595;51.608;7.216;2022-11-15T17:19:03;13.00;75.15
65836;SHT30;52595;51.608;7.216;2022-11-15T17:21:28;12.93;75.44
65836;SHT30;52595;51.608;7.216;2022-11-15T17:23:54;12.90;75.57
65836;SHT30;52595;51.608;7.216;2022-11-15T17:26:20;12.87;75.71
65836;SHT30;52595;51.608;7.216;2022-11-15T17:28:45;12.89;75.66
65836;SHT30;52595;51.608;7.216;2022-11-15T17:31:13;12.90;76.01
65836;SHT30;52595;51.608;7.216;2022-11-15T17:33:39;12.90;75.94
65836;SHT30;52595;51.608;7.216;2022-11-15T17:36:09;12.87;76.05
65836;SHT30;52595;51.608;7.216;2022-11-15T17:38:35;12.86;76.08
65836;SHT30;52595;51.608;7.216;2022-11-15T17:41:07;12.89;76.09
65836;SHT30;52595;51.608;7.216;2022-11-15T17:43:35;12.97;75.98
65836;SHT30;52595;51.608;7.216;2022-11-15T17:46:04;13.02;75.73
65836;SHT30;52595;51.608;7.216;2022-11-15T17:48:30;13.06;75.72